Chisago City, Minnesota
Current Conditions -  °F | °C
As of 10:15 PM on Friday 19 Dec 2014 (Local Time) from KOEO Reporting Station
Overcast Overcast  
Wind Chill: 21°   Ceiling: 1400
Heat Index: 28°   Visibility: 10mi
Dew Point: 25°   Wind: 7mph
Humidity: 86%   Direction: 140°SE
Pressure: 30.2"   Gusts: NA
Location:  45.37°N, 92.89°W
Report Text: KOEO 200415Z AUTO 14006KT 10SM OVC014 M02/M04 A3020 RMK AO2 T10201041
Loading
Personal Weather Stations






























Interactive Weather Map New forecast layout! Learn more

10-Day Weather Forecast

Advertisements
Track Severe Weather on mobile